createdAt,value
2023-01-20T00:03:55.536Z,-2.38
2023-01-20T00:18:59.540Z,-2.68
2023-01-20T00:34:04.496Z,-3.09
2023-01-20T00:49:09.386Z,-3.00
2023-01-20T01:04:14.888Z,-2.87
2023-01-20T01:19:19.372Z,-2.66
2023-01-20T01:34:23.560Z,-2.33
2023-01-20T01:49:28.648Z,-1.98
2023-01-20T02:04:34.252Z,-1.58
2023-01-20T02:19:46.129Z,-1.21
2023-01-20T02:34:51.634Z,-1.02
2023-01-20T02:49:56.499Z,-1.11
2023-01-20T03:05:08.379Z,-1.12
2023-01-20T03:20:12.213Z,-1.02
2023-01-20T03:35:17.176Z,-0.91
2023-01-20T03:50:35.779Z,-0.85
2023-01-20T04:05:41.281Z,-0.84
2023-01-20T04:20:45.464Z,-0.65
2023-01-20T04:35:49.986Z,-0.58
2023-01-20T04:50:53.563Z,-0.58
2023-01-20T05:05:58.488Z,-0.53
2023-01-20T05:21:02.480Z,-0.41
2023-01-20T05:36:06.876Z,-0.32
2023-01-20T05:51:10.880Z,-0.40
2023-01-20T06:06:15.997Z,-0.48
2023-01-20T06:21:19.803Z,-0.45
2023-01-20T06:36:24.630Z,-0.27
2023-01-20T06:51:28.982Z,0.03
2023-01-20T07:06:35.276Z,0.21
2023-01-20T07:21:39.149Z,0.20
2023-01-20T07:36:44.466Z,0.21
2023-01-20T07:51:48.295Z,0.15
2023-01-20T08:06:52.473Z,0.08
2023-01-20T08:21:56.364Z,0.24
2023-01-20T08:37:00.576Z,0.35
2023-01-20T08:52:05.002Z,0.47
2023-01-20T09:07:11.016Z,0.76
2023-01-20T09:22:16.579Z,1.03
2023-01-20T09:37:40.217Z,1.27
2023-01-20T09:53:05.114Z,1.28
2023-01-20T10:08:29.487Z,1.36
2023-01-20T10:23:47.733Z,1.39
2023-01-20T10:39:10.941Z,1.43
2023-01-20T10:54:29.888Z,1.19
2023-01-20T11:09:35.389Z,1.10
2023-01-20T11:24:43.037Z,1.19
2023-01-20T11:39:51.271Z,1.28
2023-01-20T11:55:07.283Z,1.53
2023-01-20T12:10:18.144Z,1.39
2023-01-20T12:25:26.281Z,1.22
2023-01-20T12:40:31.510Z,1.10
2023-01-20T12:55:41.648Z,1.01
2023-01-20T13:10:51.107Z,0.94
2023-01-20T13:25:55.419Z,1.19
2023-01-20T13:41:03.677Z,1.14
2023-01-20T13:56:23.856Z,0.95
2023-01-20T14:11:29.804Z,0.93
2023-01-20T14:26:33.851Z,0.74
2023-01-20T14:41:47.139Z,0.50
2023-01-20T14:56:51.210Z,0.25
2023-01-20T15:12:14.339Z,0.37
2023-01-20T15:27:24.550Z,0.50
2023-01-20T15:42:28.802Z,0.46
2023-01-20T15:57:32.712Z,0.27
2023-01-20T16:12:37.459Z,-0.02
2023-01-20T16:27:41.348Z,-0.11
2023-01-20T16:42:45.853Z,-0.02
2023-01-20T16:57:49.765Z,0.07
2023-01-20T17:12:54.687Z,-0.06
2023-01-20T17:27:58.582Z,-0.31
2023-01-20T17:43:05.359Z,-0.41
2023-01-20T17:58:10.712Z,-0.32
2023-01-20T18:13:15.898Z,-0.51
2023-01-20T18:28:19.914Z,-0.60
2023-01-20T18:43:25.133Z,-0.63
2023-01-20T18:58:29.103Z,-0.77
2023-01-20T19:13:34.513Z,-0.83
2023-01-20T19:28:38.499Z,-0.81
2023-01-20T19:43:42.741Z,-0.84
2023-01-20T19:58:46.948Z,-0.87
2023-01-20T20:13:53.898Z,-0.86
2023-01-20T20:28:58.634Z,-0.96
2023-01-20T20:44:03.689Z,-1.08
2023-01-20T20:59:09.016Z,-1.23
2023-01-20T21:14:13.629Z,-1.31
2023-01-20T21:29:17.900Z,-1.37
2023-01-20T21:44:29.426Z,-1.47
2023-01-20T21:59:33.641Z,-1.43
2023-01-20T22:14:39.238Z,-1.25
2023-01-20T22:29:44.082Z,-1.25
2023-01-20T22:44:49.631Z,-1.52
2023-01-20T22:59:54.004Z,-1.57
2023-01-20T23:15:01.350Z,-1.56
2023-01-20T23:30:06.141Z,-1.41
2023-01-20T23:45:12.830Z,-1.47
